HEPS

Details ICAO HEPS (PSD)
Name PORT SAID
Region Egypt
Timezone Africa/Cairo (UTC+2.0)
Plans Departing 18
Arriving 17
Stats Elevation 8 ft / 2 m (AMSL)
Location 31.279393° 32.240063°
Runways 1
Magnetic Variation 4.543° E
Sunrise 2017-12-16 04:44:21 UTC / 2017-12-16 06:44:21 Local
Sunset 2017-12-16 14:51:41 UTC / 2017-12-16 16:51:41 Local
Advertisement - Login to hide

Runways

ID Width Length Bearing (true) Bearing (mag) Surface Threshold Offset Overrun Length
10 148 ft / 45 m 7,697 ft / 2,346 m 105.87° 101.33° Asphalt 0 ft / 0 m 200 ft / 61 m
28 148 ft / 45 m 7,697 ft / 2,346 m 285.88° 281.34° Asphalt 0 ft / 0 m 200 ft / 61 m

Map

Weather


0- 5 10 15 20 25 30 35+ Temperature / ° C

Clouds and Precipitation
Forecast for 2017-12-16 12:00 UTC. Updated 2 hours ago

Ground ~20,000 ft ~40,000 ft Winds

METAR

HEPS 161200Z 02005KT 9999 FEW025 20/14 Q1021 NOSIG

TAF

Not found

Frequencies

Tower 120.70 MHz TWR
Warning: Do not use this data for real-world aviation or navigation. No guarantee of current accuracy is given.